Time;durP1;ratioP1;P1;durP2;ratioP2;P2;SDS_P1;SDS_P2;PMS_P1;PMS_P2;Temp;Humidity;BMP_temperature;BMP_pressure;BME280_temperature;BME280_humidity;BME280_pressure;Samples;Min_cycle;Max_cycle;Signal;HPM_P1;HPM_P2
2021/06/27 00:02:53;;;;;;;11.57;6.83;;;;;;;;;;10486262;28;20726;-72
2021/06/27 00:07:56;;;;;;;9.93;6.23;;;;;;;;;;10483451;28;20192;-70
2021/06/27 00:13:00;;;;;;;10.67;6.60;;;;;;;;;;10488985;28;20269;-72
2021/06/27 00:18:04;;;;;;;9.90;6.50;;;;;;;;;;10487230;28;20220;-72
2021/06/27 00:23:07;;;;;;;10.50;6.73;;;;;;;;;;10488159;28;20284;-71
2021/06/27 00:28:11;;;;;;;11.17;6.97;;;;;;;;;;10488110;28;20271;-71
2021/06/27 00:33:14;;;;;;;10.70;6.70;;;;;;;;;;10488314;28;20196;-69
2021/06/27 00:38:16;;;;;;;11.47;6.70;;;;;;;;;;10476800;28;20243;-70
2021/06/27 00:43:20;;;;;;;9.93;6.67;;;;;;;;;;10483866;28;20707;-71
2021/06/27 00:48:23;;;;;;;10.20;6.40;;;;;;;;;;10484576;28;20279;-71
2021/06/27 00:53:26;;;;;;;10.83;6.53;;;;;;;;;;10485607;28;20794;-71
2021/06/27 00:58:31;;;;;;;9.37;6.00;;;;;;;;;;10486035;28;20611;-71
2021/06/27 01:03:34;;;;;;;10.00;6.13;;;;;;;;;;10481348;28;20215;-70
2021/06/27 01:08:36;;;;;;;9.37;5.90;;;;;;;;;;10479287;28;20295;-72
2021/06/27 01:13:40;;;;;;;9.27;6.03;;;;;;;;;;10487560;28;20195;-73
2021/06/27 01:18:42;;;;;;;9.00;5.80;;;;;;;;;;10484436;28;20227;-71
2021/06/27 01:23:46;;;;;;;10.13;5.90;;;;;;;;;;10479350;28;20192;-71
2021/06/27 01:28:49;;;;;;;8.83;5.30;;;;;;;;;;10486535;28;20212;-72
2021/06/27 01:33:52;;;;;;;8.50;4.40;;;;;;;;;;10485634;28;20261;-71
2021/06/27 01:38:56;;;;;;;6.33;3.23;;;;;;;;;;10483798;28;20224;-72
2021/06/27 01:43:58;;;;;;;7.97;3.63;;;;;;;;;;10482831;28;20192;-70
2021/06/27 01:49:02;;;;;;;6.53;3.40;;;;;;;;;;10482869;28;20212;-72
2021/06/27 01:54:07;;;;;;;5.83;3.27;;;;;;;;;;10492590;28;20246;-70
2021/06/27 01:59:09;;;;;;;5.90;3.17;;;;;;;;;;10489488;28;20277;-71
2021/06/27 02:04:12;;;;;;;7.17;3.70;;;;;;;;;;10487779;28;20216;-72
2021/06/27 02:09:16;;;;;;;7.17;3.90;;;;;;;;;;10488023;28;20213;-72
2021/06/27 02:14:18;;;;;;;6.20;3.27;;;;;;;;;;10489331;28;20192;-70
2021/06/27 02:19:21;;;;;;;6.90;3.20;;;;;;;;;;10489842;28;20220;-69
2021/06/27 02:24:24;;;;;;;5.87;2.90;;;;;;;;;;10488304;28;20193;-71
2021/06/27 02:29:27;;;;;;;5.80;3.03;;;;;;;;;;10488883;28;20216;-70
2021/06/27 02:34:30;;;;;;;5.43;2.70;;;;;;;;;;10484042;28;20204;-70
2021/06/27 02:39:34;;;;;;;4.97;2.60;;;;;;;;;;10492306;28;20220;-69
2021/06/27 02:44:36;;;;;;;5.07;2.80;;;;;;;;;;10492022;28;20295;-71
2021/06/27 02:49:39;;;;;;;6.50;2.90;;;;;;;;;;10491478;28;20291;-72
2021/06/27 02:54:43;;;;;;;7.00;2.60;;;;;;;;;;10491728;28;20227;-69
2021/06/27 02:59:45;;;;;;;5.53;2.60;;;;;;;;;;10492034;28;20216;-71
2021/06/27 03:04:47;;;;;;;7.47;3.00;;;;;;;;;;10491235;28;20204;-71
2021/06/27 03:09:51;;;;;;;5.33;2.83;;;;;;;;;;10487651;28;20243;-72
2021/06/27 03:14:54;;;;;;;7.20;3.20;;;;;;;;;;10492150;28;20623;-71
2021/06/27 03:19:56;;;;;;;5.80;3.27;;;;;;;;;;10489558;28;20734;-72
2021/06/27 03:25:00;;;;;;;6.57;3.40;;;;;;;;;;10490639;28;20198;-71
2021/06/27 03:30:03;;;;;;;6.77;3.50;;;;;;;;;;10488611;28;20204;-71
2021/06/27 03:35:06;;;;;;;6.27;3.30;;;;;;;;;;10489604;28;20288;-71
2021/06/27 03:40:11;;;;;;;7.43;2.60;;;;;;;;;;10489656;28;20295;-72
2021/06/27 03:45:16;;;;;;;5.23;2.80;;;;;;;;;;10483126;28;20644;-72
2021/06/27 03:50:19;;;;;;;5.87;2.70;;;;;;;;;;10487761;28;20291;-71
2021/06/27 03:55:23;;;;;;;7.53;3.03;;;;;;;;;;10489097;28;20207;-71
2021/06/27 04:00:26;;;;;;;4.90;2.70;;;;;;;;;;10484235;28;20225;-72
2021/06/27 04:05:29;;;;;;;5.47;3.00;;;;;;;;;;10488281;28;20231;-71
2021/06/27 04:10:33;;;;;;;7.00;3.47;;;;;;;;;;10478130;28;20299;-71
2021/06/27 04:15:56;;;;;;;8.50;3.50;;;;;;;;;;10499475;28;20244;-70
2021/06/27 04:21:19;;;;;;;5.43;3.00;;;;;;;;;;10478332;28;20224;-71
2021/06/27 04:26:23;;;;;;;5.73;2.97;;;;;;;;;;10485831;28;20192;-71
2021/06/27 04:31:26;;;;;;;6.30;2.90;;;;;;;;;;10482438;28;20599;-71
2021/06/27 04:36:28;;;;;;;5.57;2.93;;;;;;;;;;10488696;28;20236;-69
2021/06/27 04:41:32;;;;;;;6.97;2.60;;;;;;;;;;10487006;28;20236;-70
2021/06/27 04:46:35;;;;;;;8.73;2.50;;;;;;;;;;10484699;28;20282;-70
2021/06/27 04:51:38;;;;;;;4.13;2.20;;;;;;;;;;10486906;28;20238;-72
2021/06/27 04:56:42;;;;;;;5.20;2.23;;;;;;;;;;10478606;28;20295;-71
2021/06/27 05:01:44;;;;;;;3.63;2.00;;;;;;;;;;10484691;28;20224;-72
2021/06/27 05:06:47;;;;;;;3.53;1.93;;;;;;;;;;10486601;28;20249;-71
2021/06/27 05:11:51;;;;;;;2.93;1.60;;;;;;;;;;10486375;28;20630;-69
2021/06/27 05:16:54;;;;;;;3.20;1.90;;;;;;;;;;10486690;28;20216;-71
2021/06/27 05:21:56;;;;;;;4.73;2.30;;;;;;;;;;10486428;28;20633;-72
2021/06/27 05:27:00;;;;;;;4.50;2.20;;;;;;;;;;10490169;28;20184;-71
2021/06/27 05:32:03;;;;;;;4.23;1.90;;;;;;;;;;10494053;28;20216;-70
2021/06/27 05:37:06;;;;;;;4.07;2.30;;;;;;;;;;10495633;28;20212;-71
2021/06/27 05:42:10;;;;;;;4.23;2.10;;;;;;;;;;10494546;28;20216;-71
2021/06/27 05:47:12;;;;;;;4.87;2.10;;;;;;;;;;10492931;28;20307;-71
2021/06/27 05:52:15;;;;;;;3.90;2.33;;;;;;;;;;10494586;28;20212;-70
2021/06/27 05:57:21;;;;;;;3.77;2.00;;;;;;;;;;10490962;28;20207;-71
2021/06/27 06:02:24;;;;;;;3.57;2.00;;;;;;;;;;10490618;28;20208;-71
2021/06/27 06:07:26;;;;;;;3.23;1.90;;;;;;;;;;10492464;28;20508;-71
2021/06/27 06:12:30;;;;;;;3.03;1.83;;;;;;;;;;10489198;28;20208;-70
2021/06/27 06:17:33;;;;;;;3.37;1.93;;;;;;;;;;10493278;28;20220;-71
2021/06/27 06:22:36;;;;;;;2.77;1.60;;;;;;;;;;10492178;28;20220;-71
2021/06/27 06:27:40;;;;;;;2.53;1.57;;;;;;;;;;10488610;28;20223;-70
2021/06/27 06:32:42;;;;;;;2.90;1.60;;;;;;;;;;10492380;28;20212;-72
2021/06/27 06:37:45;;;;;;;2.33;1.60;;;;;;;;;;10491534;28;20227;-72
2021/06/27 06:42:49;;;;;;;4.17;1.70;;;;;;;;;;10492186;28;20696;-70
2021/06/27 06:47:51;;;;;;;3.03;1.63;;;;;;;;;;10492681;28;20216;-71
2021/06/27 06:52:54;;;;;;;4.17;2.00;;;;;;;;;;10492690;28;20587;-70
2021/06/27 06:57:58;;;;;;;3.60;2.13;;;;;;;;;;10490455;28;20220;-69
2021/06/27 07:03:00;;;;;;;3.27;1.80;;;;;;;;;;10492599;28;20299;-72
2021/06/27 07:08:03;;;;;;;2.80;1.63;;;;;;;;;;10490753;28;20648;-72
2021/06/27 07:13:06;;;;;;;2.88;1.40;;;;;;;;;;10490249;28;20287;-72
2021/06/27 07:18:09;;;;;;;3.10;1.60;;;;;;;;;;10491780;28;20220;-71
2021/06/27 07:23:12;;;;;;;2.05;1.23;;;;;;;;;;10486003;28;20276;-72
2021/06/27 07:28:16;;;;;;;2.40;1.30;;;;;;;;;;10491024;28;20185;-71
2021/06/27 07:33:19;;;;;;;2.22;1.33;;;;;;;;;;10491003;28;20296;-72
2021/06/27 07:38:21;;;;;;;1.60;1.25;;;;;;;;;;10490229;28;20778;-70
2021/06/27 07:43:25;;;;;;;2.00;1.10;;;;;;;;;;10490178;28;20200;-72
2021/06/27 07:48:28;;;;;;;2.65;1.50;;;;;;;;;;10490615;28;20277;-70
2021/06/27 07:53:30;;;;;;;2.05;1.50;;;;;;;;;;10488293;28;20268;-72
2021/06/27 07:58:39;;;;;;;1.92;1.20;;;;;;;;;;10489982;28;20684;-71
2021/06/27 08:03:44;;;;;;;2.17;1.60;;;;;;;;;;10503353;28;20196;-70
2021/06/27 08:08:47;;;;;;;1.50;1.40;;;;;;;;;;10487519;28;20299;-71
2021/06/27 08:13:56;;;;;;;2.00;1.50;;;;;;;;;;10488550;28;20224;-72
2021/06/27 08:18:59;;;;;;;2.35;1.60;;;;;;;;;;10489467;28;20278;-72
2021/06/27 08:24:02;;;;;;;1.52;1.40;;;;;;;;;;10488603;28;20235;-72
2021/06/27 08:29:05;;;;;;;1.92;1.40;;;;;;;;;;10489371;28;20542;-71
2021/06/27 08:34:08;;;;;;;1.75;1.30;;;;;;;;;;10484831;28;20275;-72
2021/06/27 08:39:10;;;;;;;3.20;1.63;;;;;;;;;;10485450;28;20587;-72
2021/06/27 08:44:15;;;;;;;1.58;1.48;;;;;;;;;;10488295;28;20220;-72
2021/06/27 08:49:17;;;;;;;2.28;1.40;;;;;;;;;;10489380;28;20216;-73
2021/06/27 08:54:20;;;;;;;1.60;1.33;;;;;;;;;;10486443;28;20815;-72
2021/06/27 08:59:27;;;;;;;2.50;1.52;;;;;;;;;;10487513;28;20228;-73
2021/06/27 09:04:33;;;;;;;2.25;1.63;;;;;;;;;;10484230;28;20227;-73
2021/06/27 09:09:37;;;;;;;2.08;1.75;;;;;;;;;;10487655;28;20209;-72
2021/06/27 09:14:41;;;;;;;1.90;1.70;;;;;;;;;;10486295;28;20239;-73
2021/06/27 09:20:02;;;;;;;1.95;1.70;;;;;;;;;;10484121;28;20285;-70
2021/06/27 09:25:12;;;;;;;2.10;1.75;;;;;;;;;;10488430;28;20196;-71
2021/06/27 09:30:18;;;;;;;2.95;1.80;;;;;;;;;;10486220;28;20285;-72
2021/06/27 09:35:38;;;;;;;2.20;2.00;;;;;;;;;;10484350;28;20241;-71
2021/06/27 09:40:40;;;;;;;2.15;1.70;;;;;;;;;;10482702;28;20295;-71
2021/06/27 09:45:48;;;;;;;2.08;1.88;;;;;;;;;;10487424;28;20359;-73
2021/06/27 09:50:50;;;;;;;2.50;1.70;;;;;;;;;;10477122;28;20294;-72
2021/06/27 09:55:56;;;;;;;2.83;1.75;;;;;;;;;;10485801;28;20203;-72
2021/06/27 10:01:00;;;;;;;2.13;1.88;;;;;;;;;;10485969;28;20234;-71
2021/06/27 10:06:06;;;;;;;2.42;1.90;;;;;;;;;;10486956;28;20539;-72
2021/06/27 10:11:12;;;;;;;2.15;2.00;;;;;;;;;;10486549;28;20277;-72
2021/06/27 10:16:24;;;;;;;4.20;2.10;;;;;;;;;;10493804;28;20195;-72
2021/06/27 10:21:29;;;;;;;2.30;2.10;;;;;;;;;;10489081;28;20637;-72
2021/06/27 10:26:31;;;;;;;2.72;2.28;;;;;;;;;;10492759;28;20579;-72
2021/06/27 10:31:35;;;;;;;2.50;2.25;;;;;;;;;;10492401;28;20243;-72
2021/06/27 10:36:39;;;;;;;3.85;2.30;;;;;;;;;;10493662;28;20210;-72
2021/06/27 10:41:54;;;;;;;2.30;2.10;;;;;;;;;;10487867;28;20226;-72
2021/06/27 10:46:59;;;;;;;2.67;2.03;;;;;;;;;;10488520;28;20661;-72
2021/06/27 10:52:03;;;;;;;2.28;2.05;;;;;;;;;;10491490;28;20208;-72
2021/06/27 10:57:06;;;;;;;2.80;1.85;;;;;;;;;;10502304;28;20253;-70
2021/06/27 11:02:17;;;;;;;2.45;2.17;;;;;;;;;;10487541;28;20215;-71
2021/06/27 11:07:47;;;;;;;2.10;2.00;;;;;;;;;;10491561;28;20239;-72
2021/06/27 11:13:10;;;;;;;2.15;1.98;;;;;;;;;;10464370;28;20729;-71
2021/06/27 11:18:28;;;;;;;1.70;1.60;;;;;;;;;;10483797;28;20283;-71
2021/06/27 11:23:45;;;;;;;3.83;1.88;;;;;;;;;;10490719;28;20223;-72
2021/06/27 11:28:48;;;;;;;2.20;2.00;;;;;;;;;;10483320;28;20290;-71
2021/06/27 11:34:05;;;;;;;2.17;1.98;;;;;;;;;;10490918;28;20191;-71
2021/06/27 11:39:29;;;;;;;2.40;2.20;;;;;;;;;;10485677;28;20643;-69
2021/06/27 11:44:31;;;;;;;5.40;3.97;;;;;;;;;;10491028;28;20283;-72
2021/06/27 11:49:35;;;;;;;2.45;2.20;;;;;;;;;;10487229;28;20317;-71
2021/06/27 11:54:38;;;;;;;3.53;2.13;;;;;;;;;;10488565;28;20278;-71
2021/06/27 11:59:42;;;;;;;3.53;2.55;;;;;;;;;;10489857;28;20216;-72
2021/06/27 12:04:45;;;;;;;2.35;2.15;;;;;;;;;;10485349;28;20192;-71
2021/06/27 12:09:49;;;;;;;3.10;2.47;;;;;;;;;;10491913;28;20212;-71
2021/06/27 12:14:52;;;;;;;4.50;2.60;;;;;;;;;;10486195;28;20192;-72
2021/06/27 12:19:55;;;;;;;4.47;2.45;;;;;;;;;;10486422;28;20220;-71
2021/06/27 12:25:02;;;;;;;4.55;2.20;;;;;;;;;;10486896;28;20197;-71
2021/06/27 12:30:05;;;;;;;2.60;2.22;;;;;;;;;;10488394;28;20277;-71
2021/06/27 12:35:08;;;;;;;4.57;3.45;;;;;;;;;;10487261;28;20208;-71
2021/06/27 12:40:13;;;;;;;3.33;2.28;;;;;;;;;;10481031;28;20243;-72
2021/06/27 12:45:17;;;;;;;2.72;2.40;;;;;;;;;;10483609;28;20200;-72
2021/06/27 12:50:34;;;;;;;12.65;9.00;;;;;;;;;;10492987;28;20225;-72
2021/06/27 12:55:38;;;;;;;3.30;2.28;;;;;;;;;;10486980;28;20219;-72
2021/06/27 13:00:45;;;;;;;4.10;2.30;;;;;;;;;;10488784;28;20295;-72
2021/06/27 13:05:57;;;;;;;5.00;3.28;;;;;;;;;;10500482;28;20200;-73
2021/06/27 13:11:10;;;;;;;3.97;2.65;;;;;;;;;;10502635;28;20238;-72
2021/06/27 13:16:14;;;;;;;2.53;2.20;;;;;;;;;;10489640;28;20211;-73
2021/06/27 13:21:22;;;;;;;5.75;4.15;;;;;;;;;;10484773;28;20757;-74
2021/06/27 13:26:25;;;;;;;3.75;2.33;;;;;;;;;;10486955;28;20723;-73
2021/06/27 13:31:29;;;;;;;3.33;2.38;;;;;;;;;;10480753;28;20589;-73
2021/06/27 13:36:32;;;;;;;4.93;2.40;;;;;;;;;;10485611;28;20238;-71
2021/06/27 13:41:38;;;;;;;3.63;2.50;;;;;;;;;;10482855;28;20224;-72
2021/06/27 13:46:40;;;;;;;3.30;2.08;;;;;;;;;;10478666;28;20204;-69
2021/06/27 13:51:43;;;;;;;4.40;2.20;;;;;;;;;;10495793;28;20295;-71
2021/06/27 13:56:47;;;;;;;3.40;2.38;;;;;;;;;;10486808;28;20288;-72
2021/06/27 14:01:50;;;;;;;3.28;2.38;;;;;;;;;;10488240;28;20220;-70
2021/06/27 14:06:53;;;;;;;3.38;2.38;;;;;;;;;;10493869;28;20188;-71
2021/06/27 14:11:56;;;;;;;4.72;2.45;;;;;;;;;;10491466;28;20292;-71
2021/06/27 14:17:01;;;;;;;3.45;2.60;;;;;;;;;;10493726;28;20284;-71
2021/06/27 14:22:05;;;;;;;4.22;2.90;;;;;;;;;;10492808;28;20295;-72
2021/06/27 14:27:09;;;;;;;5.65;3.05;;;;;;;;;;10492666;28;20224;-71
2021/06/27 14:32:13;;;;;;;3.72;2.70;;;;;;;;;;10491965;28;20277;-71
2021/06/27 14:37:16;;;;;;;5.22;2.63;;;;;;;;;;10494067;28;20188;-71
2021/06/27 14:42:20;;;;;;;4.28;2.80;;;;;;;;;;10490088;28;20256;-72
2021/06/27 14:47:22;;;;;;;4.20;2.47;;;;;;;;;;10489620;28;20701;-72
2021/06/27 14:52:25;;;;;;;3.75;2.70;;;;;;;;;;10481045;28;20215;-72
2021/06/27 14:57:29;;;;;;;4.38;2.40;;;;;;;;;;10485062;28;20219;-72
2021/06/27 15:02:31;;;;;;;4.60;2.53;;;;;;;;;;10488056;28;20588;-72
2021/06/27 15:07:37;;;;;;;3.88;2.55;;;;;;;;;;10482738;28;20227;-72
2021/06/27 15:12:41;;;;;;;4.03;2.90;;;;;;;;;;10485740;28;20212;-72
2021/06/27 15:17:44;;;;;;;3.97;2.40;;;;;;;;;;10482570;28;20197;-71
2021/06/27 15:22:46;;;;;;;3.63;2.55;;;;;;;;;;10489485;28;20311;-68
2021/06/27 15:27:50;;;;;;;4.30;2.53;;;;;;;;;;10490315;28;20220;-71
2021/06/27 15:32:53;;;;;;;4.13;2.58;;;;;;;;;;10487091;28;20208;-71
2021/06/27 15:37:55;;;;;;;4.95;2.47;;;;;;;;;;10487876;28;20192;-70
2021/06/27 15:42:59;;;;;;;6.72;2.97;;;;;;;;;;10487400;28;20227;-72
2021/06/27 15:48:02;;;;;;;4.47;3.00;;;;;;;;;;10484306;28;20206;-71
2021/06/27 15:53:04;;;;;;;6.15;2.72;;;;;;;;;;10507573;28;20239;-71
2021/06/27 15:58:08;;;;;;;5.78;2.70;;;;;;;;;;10501303;28;20197;-70
2021/06/27 16:03:11;;;;;;;5.95;2.47;;;;;;;;;;10504725;28;20247;-71
2021/06/27 16:08:15;;;;;;;3.75;2.50;;;;;;;;;;10502076;28;20269;-72
2021/06/27 16:13:20;;;;;;;3.10;2.17;;;;;;;;;;10501397;28;20262;-71
2021/06/27 16:18:22;;;;;;;3.80;2.20;;;;;;;;;;10509071;28;20663;-72
2021/06/27 16:23:25;;;;;;;4.30;2.40;;;;;;;;;;10504924;28;20314;-72
2021/06/27 16:28:29;;;;;;;3.72;2.40;;;;;;;;;;10497687;28;20664;-72
2021/06/27 16:33:32;;;;;;;3.13;2.10;;;;;;;;;;10503229;28;20202;-72
2021/06/27 16:38:35;;;;;;;3.38;2.15;;;;;;;;;;10500903;28;20273;-72
2021/06/27 16:43:39;;;;;;;3.10;2.00;;;;;;;;;;10502629;28;20273;-72
2021/06/27 16:48:41;;;;;;;2.97;2.05;;;;;;;;;;10479386;28;20228;-71
2021/06/27 16:53:44;;;;;;;4.68;2.38;;;;;;;;;;10483776;28;20654;-72
2021/06/27 16:58:48;;;;;;;4.57;2.70;;;;;;;;;;10485387;28;20291;-72
2021/06/27 17:03:51;;;;;;;4.85;2.60;;;;;;;;;;10485735;28;20394;-71
2021/06/27 17:08:53;;;;;;;5.20;2.58;;;;;;;;;;10481850;28;20733;-72
2021/06/27 17:13:59;;;;;;;4.20;2.50;;;;;;;;;;10487470;28;20597;-72
2021/06/27 17:19:01;;;;;;;4.10;2.50;;;;;;;;;;10481624;28;20231;-72
2021/06/27 17:24:05;;;;;;;5.28;2.70;;;;;;;;;;10480687;28;20220;-72
2021/06/27 17:29:09;;;;;;;4.05;2.50;;;;;;;;;;10485082;28;20573;-73
2021/06/27 17:34:12;;;;;;;3.03;2.20;;;;;;;;;;10487316;28;20184;-72
2021/06/27 17:39:14;;;;;;;3.78;2.30;;;;;;;;;;10479269;28;20534;-72
2021/06/27 17:44:18;;;;;;;5.60;2.30;;;;;;;;;;10484584;28;20245;-73
2021/06/27 17:49:21;;;;;;;3.90;2.50;;;;;;;;;;10501172;28;20212;-72
2021/06/27 17:54:24;;;;;;;3.35;2.30;;;;;;;;;;10492569;28;20192;-70
2021/06/27 17:59:27;;;;;;;3.83;2.20;;;;;;;;;;10503714;28;20620;-72
2021/06/27 18:04:30;;;;;;;4.07;2.40;;;;;;;;;;10486722;28;20267;-71
2021/06/27 18:09:33;;;;;;;4.20;2.33;;;;;;;;;;10478031;28;20217;-72
2021/06/27 18:14:37;;;;;;;3.67;2.38;;;;;;;;;;10483305;28;20197;-72
2021/06/27 18:19:39;;;;;;;3.38;2.20;;;;;;;;;;10493809;28;20349;-72
2021/06/27 18:24:44;;;;;;;3.97;2.50;;;;;;;;;;10493916;28;20203;-72
2021/06/27 18:29:48;;;;;;;3.40;2.22;;;;;;;;;;10508738;28;20212;-72
2021/06/27 18:34:51;;;;;;;4.43;2.50;;;;;;;;;;10501522;28;20246;-72
2021/06/27 18:39:54;;;;;;;4.38;2.40;;;;;;;;;;10506890;28;20215;-71
2021/06/27 18:44:58;;;;;;;4.15;2.40;;;;;;;;;;10503208;28;20278;-72
2021/06/27 18:50:00;;;;;;;4.93;2.75;;;;;;;;;;10487295;28;20282;-72
2021/06/27 18:55:03;;;;;;;4.60;2.75;;;;;;;;;;10491896;28;20196;-72
2021/06/27 19:00:09;;;;;;;5.05;3.00;;;;;;;;;;10489929;28;20277;-73
2021/06/27 19:05:11;;;;;;;6.05;2.90;;;;;;;;;;10491932;28;20231;-71
2021/06/27 19:10:15;;;;;;;3.45;2.47;;;;;;;;;;10492350;28;20274;-70
2021/06/27 19:15:19;;;;;;;4.82;2.50;;;;;;;;;;10510203;28;20636;-70
2021/06/27 19:20:22;;;;;;;5.47;2.95;;;;;;;;;;10511384;28;20658;-70
2021/06/27 19:25:25;;;;;;;4.28;2.65;;;;;;;;;;10509269;28;20318;-71
2021/06/27 19:30:29;;;;;;;4.95;2.53;;;;;;;;;;10519074;28;20208;-69
2021/06/27 19:35:31;;;;;;;4.68;2.47;;;;;;;;;;10508839;28;20188;-70
2021/06/27 19:40:34;;;;;;;5.50;3.30;;;;;;;;;;10507445;28;20569;-70
2021/06/27 19:45:39;;;;;;;6.78;3.10;;;;;;;;;;10505482;28;20223;-71
2021/06/27 19:50:42;;;;;;;6.40;3.03;;;;;;;;;;10510095;28;20270;-70
2021/06/27 19:55:44;;;;;;;5.40;3.20;;;;;;;;;;10507416;28;20275;-70
2021/06/27 20:00:48;;;;;;;5.70;2.80;;;;;;;;;;10498553;28;20306;-70
2021/06/27 20:05:51;;;;;;;4.18;2.42;;;;;;;;;;10506313;28;20223;-70
2021/06/27 20:10:54;;;;;;;5.03;2.70;;;;;;;;;;10496266;28;20228;-69
2021/06/27 20:15:58;;;;;;;7.27;3.20;;;;;;;;;;10489609;28;20699;-69
2021/06/27 20:21:00;;;;;;;4.57;2.53;;;;;;;;;;10488013;28;20419;-71
2021/06/27 20:26:08;;;;;;;5.10;2.83;;;;;;;;;;10487195;28;20192;-70
2021/06/27 20:31:12;;;;;;;5.63;3.15;;;;;;;;;;10496250;28;20285;-70
2021/06/27 20:36:14;;;;;;;5.27;3.17;;;;;;;;;;10503095;28;20212;-68
2021/06/27 20:41:17;;;;;;;6.33;3.10;;;;;;;;;;10513775;28;20630;-71
2021/06/27 20:46:21;;;;;;;4.63;2.70;;;;;;;;;;10484512;28;20292;-71
2021/06/27 20:51:27;;;;;;;5.27;2.50;;;;;;;;;;10486471;28;20731;-70
2021/06/27 20:56:30;;;;;;;3.83;2.23;;;;;;;;;;10487085;28;20211;-71
2021/06/27 21:01:34;;;;;;;5.37;2.90;;;;;;;;;;10482864;28;20229;-71
2021/06/27 21:06:37;;;;;;;3.97;2.30;;;;;;;;;;10487260;28;20228;-70
2021/06/27 21:11:39;;;;;;;4.70;2.40;;;;;;;;;;10483809;28;20236;-70
2021/06/27 21:16:43;;;;;;;4.63;1.93;;;;;;;;;;10484250;28;20214;-70
2021/06/27 21:21:46;;;;;;;4.17;2.53;;;;;;;;;;10484614;28;20217;-69
2021/06/27 21:26:48;;;;;;;6.13;2.50;;;;;;;;;;10482581;28;20261;-71
2021/06/27 21:31:52;;;;;;;5.03;2.47;;;;;;;;;;10485709;28;20235;-71
2021/06/27 21:36:56;;;;;;;5.53;2.50;;;;;;;;;;10478924;28;20202;-69
2021/06/27 21:41:58;;;;;;;5.87;2.37;;;;;;;;;;10483075;28;20655;-69
2021/06/27 21:47:16;;;;;;;3.47;2.20;;;;;;;;;;10484693;28;20185;-71
2021/06/27 21:52:19;;;;;;;3.77;2.30;;;;;;;;;;10484850;28;20567;-70
2021/06/27 21:57:22;;;;;;;4.30;2.40;;;;;;;;;;10483129;28;20623;-71
2021/06/27 22:02:25;;;;;;;5.43;2.80;;;;;;;;;;10484863;28;20216;-71
2021/06/27 22:07:28;;;;;;;4.93;2.53;;;;;;;;;;10485412;28;20687;-70
2021/06/27 22:12:30;;;;;;;4.83;2.60;;;;;;;;;;10484570;28;20299;-70
2021/06/27 22:17:34;;;;;;;5.10;2.33;;;;;;;;;;10493391;28;20232;-69
2021/06/27 22:22:37;;;;;;;4.03;2.70;;;;;;;;;;10488788;28;20277;-67
2021/06/27 22:27:42;;;;;;;4.63;2.57;;;;;;;;;;10483351;28;20299;-69
2021/06/27 22:32:48;;;;;;;4.50;2.40;;;;;;;;;;10490585;28;20216;-70
2021/06/27 22:37:52;;;;;;;4.87;2.60;;;;;;;;;;10491742;28;20215;-70
2021/06/27 22:42:54;;;;;;;5.17;2.43;;;;;;;;;;10490891;28;20220;-70
2021/06/27 22:47:58;;;;;;;5.70;2.73;;;;;;;;;;10482709;28;20193;-70
2021/06/27 22:53:01;;;;;;;3.93;2.40;;;;;;;;;;10489153;28;20208;-71
2021/06/27 22:58:04;;;;;;;4.30;2.30;;;;;;;;;;10487612;28;20598;-70
2021/06/27 23:03:08;;;;;;;5.60;2.47;;;;;;;;;;10491853;28;20675;-70
2021/06/27 23:08:10;;;;;;;4.93;2.53;;;;;;;;;;10488764;28;20224;-70
2021/06/27 23:13:13;;;;;;;3.40;2.30;;;;;;;;;;10489894;28;20261;-71
2021/06/27 23:18:17;;;;;;;4.87;2.00;;;;;;;;;;10485772;28;20204;-68
2021/06/27 23:23:20;;;;;;;3.27;2.07;;;;;;;;;;10489773;28;20216;-69
2021/06/27 23:28:22;;;;;;;4.90;2.30;;;;;;;;;;10489505;28;20605;-70
2021/06/27 23:33:26;;;;;;;2.97;2.10;;;;;;;;;;10490003;28;20292;-70
2021/06/27 23:38:28;;;;;;;4.53;2.30;;;;;;;;;;10477127;28;20228;-70
2021/06/27 23:43:31;;;;;;;5.90;2.40;;;;;;;;;;10490461;28;20293;-70
2021/06/27 23:48:35;;;;;;;3.47;2.47;;;;;;;;;;10481597;28;20536;-70
2021/06/27 23:53:37;;;;;;;3.87;2.27;;;;;;;;;;10487073;28;20580;-70
2021/06/27 23:58:42;;;;;;;6.17;2.73;;;;;;;;;;10487886;28;20246;-70
